createdAt,value
2023-03-22T00:02:21.567Z,13.42
2023-03-22T00:05:11.409Z,13.51
2023-03-22T00:08:05.783Z,13.52
2023-03-22T00:10:55.098Z,13.48
2023-03-22T00:13:46.998Z,13.44
2023-03-22T00:16:59.639Z,13.35
2023-03-22T00:19:49.549Z,13.37
2023-03-22T00:22:41.806Z,13.35
2023-03-22T00:25:32.340Z,13.41
2023-03-22T00:28:21.782Z,13.43
2023-03-22T00:31:11.967Z,13.41
2023-03-22T00:34:02.711Z,13.41
2023-03-22T00:36:52.226Z,13.46
2023-03-22T00:39:42.238Z,13.49
2023-03-22T00:42:31.910Z,13.40
2023-03-22T00:45:21.222Z,13.40
2023-03-22T00:48:12.194Z,13.46
2023-03-22T00:51:03.554Z,13.47
2023-03-22T00:53:55.406Z,13.38
2023-03-22T00:56:46.497Z,13.41
2023-03-22T00:59:38.724Z,13.33
2023-03-22T01:02:29.806Z,13.23
2023-03-22T01:05:21.975Z,13.12
2023-03-22T01:08:14.933Z,13.02
2023-03-22T01:11:04.125Z,12.76
2023-03-22T01:13:53.727Z,12.58
2023-03-22T01:16:43.021Z,12.38
2023-03-22T01:19:32.554Z,12.31
2023-03-22T01:22:21.903Z,12.21
2023-03-22T01:25:13.116Z,11.99
2023-03-22T01:28:03.206Z,11.82
2023-03-22T01:30:52.681Z,11.61
2023-03-22T01:33:42.066Z,11.68
2023-03-22T01:36:31.696Z,11.47
2023-03-22T01:39:21.001Z,11.49
2023-03-22T01:42:17.002Z,11.53
2023-03-22T01:45:40.161Z,11.39
2023-03-22T01:48:34.656Z,11.42
2023-03-22T01:51:26.280Z,11.38
2023-03-22T01:54:45.436Z,11.29
2023-03-22T01:57:55.504Z,11.18
2023-03-22T02:01:01.258Z,11.12
2023-03-22T02:04:16.374Z,11.07
2023-03-22T02:07:15.563Z,10.94
2023-03-22T02:10:12.784Z,10.84
2023-03-22T02:13:34.227Z,10.69
2023-03-22T02:16:57.758Z,10.65
2023-03-22T02:20:48.154Z,10.62
2023-03-22T02:24:36.180Z,10.53
2023-03-22T02:27:48.906Z,10.42
2023-03-22T02:31:18.389Z,10.36
2023-03-22T02:35:01.662Z,10.38
2023-03-22T02:38:45.759Z,10.34
2023-03-22T02:41:53.066Z,10.34
2023-03-22T02:44:46.468Z,10.22
2023-03-22T02:47:43.462Z,10.15
2023-03-22T02:50:42.142Z,10.13
2023-03-22T02:53:37.634Z,10.20
2023-03-22T02:56:32.866Z,10.26
2023-03-22T02:59:26.821Z,10.08
2023-03-22T03:02:19.812Z,10.02
2023-03-22T03:05:11.728Z,10.16
2023-03-22T03:08:03.877Z,10.06
2023-03-22T03:10:56.297Z,10.07
2023-03-22T03:13:48.961Z,10.01
2023-03-22T03:16:40.359Z,9.96
2023-03-22T03:19:38.664Z,9.80
2023-03-22T03:22:53.491Z,9.83
2023-03-22T03:25:51.671Z,9.78
2023-03-22T03:28:49.902Z,9.72
2023-03-22T03:31:51.653Z,9.65
2023-03-22T03:34:49.753Z,9.65
2023-03-22T03:37:44.067Z,9.64
2023-03-22T03:40:36.387Z,9.55
2023-03-22T03:43:27.384Z,9.52
2023-03-22T03:46:17.445Z,9.50
2023-03-22T03:49:10.287Z,9.56
2023-03-22T03:52:00.993Z,9.52
2023-03-22T03:54:50.236Z,9.39
2023-03-22T03:57:43.761Z,9.33
2023-03-22T04:00:32.998Z,9.40
2023-03-22T04:03:44.190Z,9.40
2023-03-22T04:07:00.980Z,9.39
2023-03-22T04:09:52.191Z,9.41
2023-03-22T04:12:46.992Z,9.28
2023-03-22T04:15:39.470Z,9.27
2023-03-22T04:18:32.585Z,9.29
2023-03-22T04:21:25.580Z,9.18
2023-03-22T04:24:23.097Z,9.34
2023-03-22T04:27:14.325Z,9.18
2023-03-22T04:30:27.578Z,9.27
2023-03-22T04:33:23.196Z,9.26
2023-03-22T04:36:40.477Z,9.17
2023-03-22T04:39:46.970Z,9.25
2023-03-22T04:42:57.671Z,9.24
2023-03-22T04:46:12.901Z,9.10
2023-03-22T04:49:09.842Z,9.10
2023-03-22T04:52:02.812Z,9.10
2023-03-22T04:54:58.298Z,9.03
2023-03-22T04:57:47.709Z,9.08
2023-03-22T05:00:37.853Z,9.18
2023-03-22T05:03:28.440Z,9.20
2023-03-22T05:06:18.754Z,9.14
2023-03-22T05:09:18.074Z,9.02
2023-03-22T05:12:09.162Z,9.02
2023-03-22T05:15:04.486Z,9.05
2023-03-22T05:17:57.655Z,9.04
2023-03-22T05:20:47.607Z,9.05
2023-03-22T05:23:42.184Z,9.05
2023-03-22T05:26:32.403Z,8.97
2023-03-22T05:29:23.457Z,8.95
2023-03-22T05:32:29.377Z,9.03
2023-03-22T05:35:19.030Z,9.02
2023-03-22T05:38:13.681Z,8.99
2023-03-22T05:41:08.851Z,9.03
2023-03-22T05:43:59.233Z,9.05
2023-03-22T05:46:53.134Z,8.94
2023-03-22T05:50:21.156Z,8.81
2023-03-22T05:53:11.751Z,8.95
2023-03-22T05:56:21.980Z,9.00
2023-03-22T05:59:12.072Z,9.06
2023-03-22T06:02:02.894Z,8.96
2023-03-22T06:04:53.852Z,9.00
2023-03-22T06:07:44.313Z,9.07
2023-03-22T06:10:38.706Z,9.09
2023-03-22T06:13:29.091Z,9.02
2023-03-22T06:16:18.874Z,8.98
2023-03-22T06:19:09.646Z,9.03
2023-03-22T06:21:59.069Z,9.06
2023-03-22T06:24:49.739Z,9.02
2023-03-22T06:27:45.614Z,9.00
2023-03-22T06:30:35.421Z,9.03
2023-03-22T06:33:57.210Z,8.99
2023-03-22T06:36:56.628Z,9.06
2023-03-22T06:39:57.759Z,9.10
2023-03-22T06:42:48.397Z,9.08
2023-03-22T06:45:40.110Z,9.12
2023-03-22T06:48:30.009Z,8.86
2023-03-22T06:51:26.470Z,9.10
2023-03-22T06:54:17.264Z,9.11
2023-03-22T06:57:06.600Z,9.15
2023-03-22T06:59:55.783Z,9.17
2023-03-22T07:02:45.233Z,9.18
2023-03-22T07:06:12.251Z,9.16
2023-03-22T07:09:05.495Z,9.29
2023-03-22T07:11:59.470Z,9.24
2023-03-22T07:14:48.814Z,9.35
2023-03-22T07:18:07.689Z,9.59
2023-03-22T07:20:57.494Z,9.86
2023-03-22T07:23:49.821Z,10.13
2023-03-22T07:26:41.820Z,10.36
2023-03-22T07:29:40.220Z,10.58
2023-03-22T07:32:32.890Z,10.86
2023-03-22T07:35:38.898Z,10.95
2023-03-22T07:38:29.109Z,11.18
2023-03-22T07:41:18.981Z,11.38
2023-03-22T07:44:28.687Z,11.46
2023-03-22T07:47:41.424Z,11.54
2023-03-22T07:50:40.219Z,11.52
2023-03-22T07:53:30.287Z,11.61
2023-03-22T07:56:19.975Z,11.74
2023-03-22T07:59:09.567Z,11.55
2023-03-22T08:01:59.594Z,11.59
2023-03-22T08:04:56.643Z,11.71
2023-03-22T08:07:57.048Z,11.85
2023-03-22T08:10:51.664Z,11.85
2023-03-22T08:13:41.817Z,12.11
2023-03-22T08:16:33.157Z,12.27
2023-03-22T08:19:24.438Z,12.42
2023-03-22T08:22:15.555Z,12.64
2023-03-22T08:25:39.798Z,12.85
2023-03-22T08:28:38.034Z,12.78
2023-03-22T08:31:28.049Z,12.91
2023-03-22T08:34:17.370Z,13.08
2023-03-22T08:37:08.445Z,13.31
2023-03-22T08:40:00.189Z,13.20
2023-03-22T08:42:56.628Z,13.32
2023-03-22T08:45:46.234Z,13.69
2023-03-22T08:48:42.218Z,13.90
2023-03-22T08:51:37.887Z,13.75
2023-03-22T08:54:40.344Z,13.90
2023-03-22T08:58:04.216Z,13.88
2023-03-22T09:01:14.158Z,13.87
2023-03-22T09:04:10.922Z,14.06
2023-03-22T09:07:00.441Z,14.37
2023-03-22T09:09:49.810Z,14.61
2023-03-22T09:12:39.936Z,14.67
2023-03-22T09:15:32.965Z,14.72
2023-03-22T09:18:39.520Z,14.68
2023-03-22T09:21:34.409Z,14.80
2023-03-22T09:24:48.071Z,14.94
2023-03-22T09:27:37.475Z,14.69
2023-03-22T09:30:28.162Z,14.44
2023-03-22T09:33:21.934Z,14.24
2023-03-22T09:36:13.668Z,14.05
2023-03-22T09:39:06.844Z,13.83
2023-03-22T09:42:00.638Z,13.66
2023-03-22T09:44:52.047Z,13.67
2023-03-22T09:47:49.552Z,13.47
2023-03-22T09:50:46.853Z,13.61
2023-03-22T09:53:36.328Z,13.55
2023-03-22T09:56:28.830Z,13.64
2023-03-22T09:59:27.292Z,13.38
2023-03-22T10:02:53.710Z,13.35
2023-03-22T10:05:50.432Z,13.24
2023-03-22T10:08:55.597Z,13.13
2023-03-22T10:11:48.300Z,13.21
2023-03-22T10:14:41.546Z,13.55
2023-03-22T10:17:31.887Z,14.05
2023-03-22T10:20:33.159Z,14.73
2023-03-22T10:23:36.194Z,14.92
2023-03-22T10:26:30.751Z,15.07
2023-03-22T10:29:30.474Z,15.50
2023-03-22T10:32:51.092Z,15.80
2023-03-22T10:35:46.404Z,16.12
2023-03-22T10:38:50.534Z,16.65
2023-03-22T10:41:48.156Z,16.77
2023-03-22T10:44:49.318Z,17.09
2023-03-22T10:47:43.804Z,17.45
2023-03-22T10:50:37.396Z,17.56
2023-03-22T10:53:41.904Z,17.98
2023-03-22T10:56:31.162Z,17.80
2023-03-22T10:59:49.862Z,17.49
2023-03-22T11:02:49.420Z,17.53
2023-03-22T11:05:38.860Z,18.07
2023-03-22T11:08:28.535Z,18.03
2023-03-22T11:11:28.062Z,17.92
2023-03-22T11:14:23.576Z,18.06
2023-03-22T11:17:17.151Z,18.10
2023-03-22T11:20:10.076Z,17.55
2023-03-22T11:23:02.776Z,17.79
2023-03-22T11:25:53.616Z,17.62
2023-03-22T11:28:48.754Z,17.72
2023-03-22T11:31:55.944Z,17.33
2023-03-22T11:34:47.390Z,17.47
2023-03-22T11:37:43.583Z,17.08
2023-03-22T11:40:36.335Z,17.04
2023-03-22T11:43:28.744Z,16.38
2023-03-22T11:46:20.451Z,16.48
2023-03-22T11:49:15.710Z,16.69
2023-03-22T11:52:12.379Z,16.96
2023-03-22T11:55:02.625Z,17.69
2023-03-22T11:57:56.994Z,18.18
2023-03-22T12:00:46.708Z,18.62
2023-03-22T12:03:41.028Z,18.70
2023-03-22T12:06:36.030Z,18.93
2023-03-22T12:09:36.834Z,19.28
2023-03-22T12:12:32.139Z,19.11
2023-03-22T12:15:25.189Z,19.04
2023-03-22T12:18:19.012Z,19.62
2023-03-22T12:21:12.172Z,19.75
2023-03-22T12:24:04.637Z,19.69
2023-03-22T12:26:59.325Z,19.44
2023-03-22T12:29:56.567Z,19.34
2023-03-22T12:32:51.003Z,19.47
2023-03-22T12:35:46.566Z,19.56
2023-03-22T12:38:42.493Z,19.44
2023-03-22T12:41:38.684Z,19.09
2023-03-22T12:44:34.954Z,19.04
2023-03-22T12:47:29.795Z,19.34
2023-03-22T12:50:23.116Z,19.55
2023-03-22T12:53:16.537Z,19.65
2023-03-22T12:56:08.660Z,19.97
2023-03-22T12:59:02.633Z,20.18
2023-03-22T13:01:58.032Z,20.04
2023-03-22T13:04:56.917Z,20.01
2023-03-22T13:07:55.832Z,19.89
2023-03-22T13:11:02.526Z,20.17
2023-03-22T13:13:53.141Z,19.92
2023-03-22T13:16:57.491Z,19.97
2023-03-22T13:19:55.096Z,19.86
2023-03-22T13:23:26.400Z,19.56
2023-03-22T13:26:17.448Z,19.82
2023-03-22T13:29:17.584Z,20.30
2023-03-22T13:32:28.595Z,20.57
2023-03-22T13:35:24.819Z,20.52
2023-03-22T13:38:23.055Z,20.78
2023-03-22T13:41:23.409Z,20.57
2023-03-22T13:44:29.887Z,20.33
2023-03-22T13:47:44.207Z,20.59
2023-03-22T13:50:35.068Z,20.34
2023-03-22T13:53:31.382Z,20.28
2023-03-22T13:56:34.659Z,20.45
2023-03-22T13:59:33.956Z,20.26
2023-03-22T14:02:30.150Z,20.32
2023-03-22T14:05:23.712Z,20.03
2023-03-22T14:08:25.399Z,19.72
2023-03-22T14:11:27.617Z,18.86
2023-03-22T14:14:21.924Z,18.84
2023-03-22T14:17:25.564Z,18.48
2023-03-22T14:20:20.431Z,18.21
